Terminal Aerodrome Forecast
Issued by NWS

Home | Current Version | Previous Version | Text Only | Print | Product List | Glossary On
Versions: 1 2 3 4 5 6 7 8 9 10 11 12 13 14 15 16 17 18 19 20 21 22
106
FTUS43 KDVN 271516 AAA
TAFBRL
TAF AMD
KBRL 271516Z 2715/2812 07007KT 3SM BR BKN002
     FM271600 10006KT 6SM BR BKN010
     FM271700 12006KT P6SM SCT010 BKN025
     FM272000 14008KT P6SM VCTS BKN050CB
     FM280300 03010KT 6SM BR BKN030
     FM280900 36004KT 4SM BR BKN020=

USA.gov is the U.S. government's official web portal to all federal, state and local government web resources and services.